createdAt,value
2022-10-28T00:01:29.861Z,15.16
2022-10-28T00:03:59.863Z,15.16
2022-10-28T00:06:31.274Z,15.17
2022-10-28T00:09:00.106Z,15.15
2022-10-28T00:11:30.150Z,15.17
2022-10-28T00:14:02.803Z,15.07
2022-10-28T00:16:32.561Z,15.12
2022-10-28T00:19:02.068Z,15.13
2022-10-28T00:21:32.223Z,15.11
2022-10-28T00:24:00.585Z,15.11
2022-10-28T00:26:32.024Z,15.16
2022-10-28T00:29:04.797Z,15.15
2022-10-28T00:31:34.481Z,15.17
2022-10-28T00:34:04.926Z,15.17
2022-10-28T00:36:37.152Z,15.21
2022-10-28T00:39:11.365Z,15.20
2022-10-28T00:41:41.909Z,15.14
2022-10-28T00:44:58.794Z,15.10
2022-10-28T00:47:52.741Z,15.07
2022-10-28T00:50:41.198Z,15.01
2022-10-28T00:53:15.165Z,15.07
2022-10-28T00:55:44.317Z,15.05
2022-10-28T00:58:13.381Z,15.07
2022-10-28T01:00:44.662Z,15.02
2022-10-28T01:03:14.380Z,15.03
2022-10-28T01:05:44.563Z,15.00
2022-10-28T01:08:12.995Z,15.02
2022-10-28T01:10:56.959Z,14.98
2022-10-28T01:13:37.835Z,14.97
2022-10-28T01:16:13.136Z,14.96
2022-10-28T01:18:55.525Z,14.93
2022-10-28T01:21:59.129Z,14.92
2022-10-28T01:24:54.139Z,14.97
2022-10-28T01:27:48.627Z,14.94
2022-10-28T01:30:21.226Z,15.02
2022-10-28T01:33:00.150Z,15.00
2022-10-28T01:35:34.679Z,15.04
2022-10-28T01:38:15.755Z,15.08
2022-10-28T01:40:49.393Z,15.07
2022-10-28T01:43:25.372Z,15.10
2022-10-28T01:45:59.571Z,15.15
2022-10-28T01:48:33.884Z,15.16
2022-10-28T01:51:09.189Z,15.18
2022-10-28T01:53:43.681Z,15.18
2022-10-28T01:56:16.975Z,15.21
2022-10-28T01:58:46.371Z,15.24
2022-10-28T02:01:15.551Z,15.19
2022-10-28T02:03:47.599Z,15.19
2022-10-28T02:06:20.341Z,15.24
2022-10-28T02:09:01.139Z,15.24
2022-10-28T02:11:53.928Z,15.26
2022-10-28T02:14:34.358Z,15.28
2022-10-28T02:17:11.956Z,15.26
2022-10-28T02:19:50.272Z,15.24
2022-10-28T02:22:24.026Z,15.28
2022-10-28T02:25:00.452Z,15.30
2022-10-28T02:27:35.315Z,15.31
2022-10-28T02:30:08.743Z,15.29
2022-10-28T02:32:42.112Z,15.31
2022-10-28T02:35:18.133Z,15.29
2022-10-28T02:37:49.991Z,15.31
2022-10-28T02:40:23.400Z,15.33
2022-10-28T02:42:56.405Z,15.34
2022-10-28T02:45:32.538Z,15.34
2022-10-28T02:48:06.873Z,15.35
2022-10-28T02:50:41.590Z,15.36
2022-10-28T02:53:19.323Z,15.38
2022-10-28T02:55:56.685Z,15.35
2022-10-28T02:58:24.829Z,15.38
2022-10-28T03:00:53.273Z,15.40
2022-10-28T03:03:21.726Z,15.35
2022-10-28T03:05:51.301Z,15.38
2022-10-28T03:08:20.018Z,15.43
2022-10-28T03:10:48.501Z,15.44
2022-10-28T03:13:16.742Z,15.40
2022-10-28T03:15:44.913Z,15.41
2022-10-28T03:18:13.227Z,15.40
2022-10-28T03:20:42.392Z,15.44
2022-10-28T03:23:12.292Z,15.41
2022-10-28T03:25:41.298Z,15.40
2022-10-28T03:28:09.468Z,15.41
2022-10-28T03:30:38.433Z,15.40
2022-10-28T03:33:06.962Z,15.37
2022-10-28T03:35:35.198Z,15.35
2022-10-28T03:38:03.531Z,15.36
2022-10-28T03:40:34.436Z,15.35
2022-10-28T03:43:02.647Z,15.26
2022-10-28T03:45:31.796Z,15.29
2022-10-28T03:48:00.373Z,15.28
2022-10-28T03:50:28.507Z,15.23
2022-10-28T03:52:57.143Z,15.24
2022-10-28T03:55:26.371Z,15.25
2022-10-28T03:57:56.284Z,15.22
2022-10-28T04:00:25.189Z,15.26
2022-10-28T04:02:53.740Z,15.19
2022-10-28T04:05:22.867Z,15.19
2022-10-28T04:07:51.377Z,15.21
2022-10-28T04:10:19.485Z,15.18
2022-10-28T04:12:47.686Z,15.11
2022-10-28T04:15:17.516Z,15.12
2022-10-28T04:17:45.545Z,15.12
2022-10-28T04:20:13.916Z,15.07
2022-10-28T04:22:42.226Z,15.07
2022-10-28T04:25:11.484Z,15.10
2022-10-28T04:27:39.955Z,15.09
2022-10-28T04:30:09.201Z,15.09
2022-10-28T04:32:39.037Z,15.11
2022-10-28T04:35:08.009Z,15.07
2022-10-28T04:37:36.571Z,15.00
2022-10-28T04:40:05.216Z,15.05
2022-10-28T04:42:33.337Z,15.06
2022-10-28T04:45:01.658Z,15.03
2022-10-28T04:47:30.519Z,14.99
2022-10-28T04:50:00.408Z,14.98
2022-10-28T04:52:29.221Z,15.01
2022-10-28T04:54:57.756Z,15.04
2022-10-28T04:57:25.934Z,15.02
2022-10-28T04:59:54.271Z,14.95
2022-10-28T05:02:24.169Z,14.92
2022-10-28T05:04:52.476Z,14.98
2022-10-28T05:07:23.570Z,14.93
2022-10-28T05:09:51.996Z,14.97
2022-10-28T05:12:20.282Z,14.94
2022-10-28T05:14:51.191Z,14.97
2022-10-28T05:17:21.649Z,14.95
2022-10-28T05:19:50.226Z,14.98
2022-10-28T05:22:18.462Z,14.95
2022-10-28T05:24:48.062Z,14.98
2022-10-28T05:27:17.349Z,15.00
2022-10-28T05:29:45.861Z,15.02
2022-10-28T05:32:14.149Z,15.04
2022-10-28T05:34:42.862Z,15.03
2022-10-28T05:37:12.156Z,15.00
2022-10-28T05:39:43.023Z,15.00
2022-10-28T05:42:15.484Z,14.99
2022-10-28T05:44:44.198Z,15.06
2022-10-28T05:47:12.708Z,14.99
2022-10-28T05:49:44.828Z,15.00
2022-10-28T05:52:13.350Z,15.00
2022-10-28T05:54:41.666Z,15.02
2022-10-28T05:57:10.378Z,15.03
2022-10-28T05:59:40.168Z,15.01
2022-10-28T06:02:11.487Z,15.01
2022-10-28T06:04:40.044Z,14.98
2022-10-28T06:07:08.786Z,15.01
2022-10-28T06:09:37.369Z,15.05
2022-10-28T06:12:07.149Z,15.02
2022-10-28T06:14:35.548Z,15.01
2022-10-28T06:17:05.336Z,14.98
2022-10-28T06:19:33.666Z,15.02
2022-10-28T06:22:01.776Z,15.05
2022-10-28T06:24:30.010Z,15.08
2022-10-28T06:26:58.785Z,15.05
2022-10-28T06:29:27.273Z,15.10
2022-10-28T06:31:55.785Z,15.11
2022-10-28T06:34:27.020Z,15.10
2022-10-28T06:36:55.312Z,15.17
2022-10-28T06:39:23.804Z,15.17
2022-10-28T06:41:52.060Z,15.18
2022-10-28T06:44:20.207Z,15.19
2022-10-28T06:46:50.252Z,15.22
2022-10-28T06:49:18.796Z,15.25
2022-10-28T06:51:49.926Z,15.19
2022-10-28T06:54:19.084Z,15.26
2022-10-28T06:56:48.992Z,15.26
2022-10-28T06:59:17.273Z,15.31
2022-10-28T07:01:45.959Z,15.28
2022-10-28T07:04:14.667Z,15.29
2022-10-28T07:06:43.169Z,15.30
2022-10-28T07:09:15.927Z,15.28
2022-10-28T07:11:45.144Z,15.24
2022-10-28T07:14:20.557Z,15.16
2022-10-28T07:16:48.710Z,15.26
2022-10-28T07:19:19.093Z,15.26
2022-10-28T07:21:51.288Z,15.26
2022-10-28T07:24:20.847Z,15.24
2022-10-28T07:26:52.010Z,15.26
2022-10-28T07:29:22.740Z,15.28
2022-10-28T07:31:50.859Z,15.29
2022-10-28T07:34:25.851Z,15.32
2022-10-28T07:36:56.701Z,15.28
2022-10-28T07:39:26.449Z,15.32
2022-10-28T07:41:54.749Z,15.26
2022-10-28T07:44:23.228Z,15.30
2022-10-28T07:46:55.597Z,15.26
2022-10-28T07:49:26.870Z,15.28
2022-10-28T07:51:54.942Z,15.32
2022-10-28T07:54:23.067Z,15.28
2022-10-28T07:56:53.134Z,15.27
2022-10-28T07:59:25.850Z,15.26
2022-10-28T08:01:55.397Z,15.28
2022-10-28T08:04:23.756Z,15.31
2022-10-28T08:06:51.919Z,15.32
2022-10-28T08:09:20.374Z,15.27
2022-10-28T08:11:48.386Z,15.17
2022-10-28T08:14:17.846Z,15.14
2022-10-28T08:16:47.569Z,15.28
2022-10-28T08:19:15.806Z,15.28
2022-10-28T08:21:44.139Z,15.23
2022-10-28T08:24:12.557Z,15.29
2022-10-28T08:26:41.039Z,15.29
2022-10-28T08:29:11.932Z,15.35
2022-10-28T08:31:44.824Z,15.34
2022-10-28T08:34:13.018Z,15.36
2022-10-28T08:36:41.830Z,15.34
2022-10-28T08:39:10.354Z,15.31
2022-10-28T08:41:42.038Z,15.30
2022-10-28T08:44:37.279Z,15.28
2022-10-28T08:47:17.662Z,15.31
2022-10-28T08:49:50.326Z,15.24
2022-10-28T08:52:29.708Z,15.28
2022-10-28T08:55:03.768Z,15.28
2022-10-28T08:57:39.229Z,15.30
2022-10-28T09:00:10.720Z,15.30
2022-10-28T09:02:52.597Z,15.30
2022-10-28T09:05:23.870Z,15.39
2022-10-28T09:07:53.070Z,15.40
2022-10-28T09:10:40.353Z,15.27
2022-10-28T09:13:18.503Z,15.28
2022-10-28T09:15:56.551Z,15.30
2022-10-28T09:18:39.339Z,15.31
2022-10-28T09:21:16.367Z,15.37
2022-10-28T09:23:52.100Z,15.37
2022-10-28T09:26:25.848Z,15.34
2022-10-28T09:29:05.502Z,15.34
2022-10-28T09:31:37.211Z,15.31
2022-10-28T09:34:20.333Z,15.28
2022-10-28T09:36:53.778Z,15.26
2022-10-28T09:39:27.992Z,15.20
2022-10-28T09:42:01.275Z,15.28
2022-10-28T09:44:40.404Z,15.21
2022-10-28T09:47:17.884Z,15.25
2022-10-28T09:49:50.949Z,15.27
2022-10-28T09:52:24.396Z,15.21
2022-10-28T09:54:55.646Z,15.25
2022-10-28T09:57:31.855Z,15.24
2022-10-28T10:00:01.353Z,15.25
2022-10-28T10:02:31.967Z,15.17
2022-10-28T10:05:04.049Z,15.28
2022-10-28T10:07:37.504Z,15.31
2022-10-28T10:10:13.831Z,15.30
2022-10-28T10:12:42.741Z,15.29
2022-10-28T10:15:20.446Z,15.31
2022-10-28T10:17:50.698Z,15.30
2022-10-28T10:20:21.889Z,15.27
2022-10-28T10:22:51.177Z,15.34
2022-10-28T10:25:33.852Z,15.26
2022-10-28T10:28:05.158Z,15.31
2022-10-28T10:30:37.725Z,15.23
2022-10-28T10:33:08.788Z,15.29
2022-10-28T10:35:42.651Z,15.34
2022-10-28T10:38:17.114Z,15.27
2022-10-28T10:40:51.151Z,15.25
2022-10-28T10:43:26.073Z,15.20
2022-10-28T10:46:01.399Z,15.28
2022-10-28T10:48:32.407Z,15.22
2022-10-28T10:51:07.446Z,15.21
2022-10-28T10:53:37.775Z,15.24
2022-10-28T10:56:10.901Z,15.28
2022-10-28T10:58:41.933Z,15.30
2022-10-28T11:01:11.793Z,15.27
2022-10-28T11:03:49.710Z,15.26
2022-10-28T11:06:25.205Z,15.27
2022-10-28T11:08:58.861Z,15.26
2022-10-28T11:11:35.468Z,15.19
2022-10-28T11:14:05.793Z,15.18
2022-10-28T11:16:34.270Z,15.19
2022-10-28T11:19:17.524Z,15.06
2022-10-28T11:21:59.977Z,15.09
2022-10-28T11:24:42.926Z,15.12
2022-10-28T11:27:24.113Z,15.10
2022-10-28T11:29:52.701Z,15.13
2022-10-28T11:32:54.448Z,15.10
2022-10-28T11:35:45.275Z,15.02
2022-10-28T11:38:28.694Z,15.18
2022-10-28T11:41:12.902Z,15.17
2022-10-28T11:43:54.587Z,15.27
2022-10-28T11:46:38.003Z,15.27
2022-10-28T11:49:59.264Z,15.26
2022-10-28T11:52:45.081Z,15.25
2022-10-28T11:55:23.483Z,15.19
2022-10-28T11:58:03.916Z,15.21
2022-10-28T12:00:45.469Z,15.28
2022-10-28T12:03:45.705Z,15.20
2022-10-28T12:06:19.436Z,15.18
2022-10-28T12:09:09.059Z,15.07
2022-10-28T12:14:31.375Z,15.10
2022-10-28T12:17:09.927Z,15.04
2022-10-28T12:19:46.406Z,15.15
2022-10-28T12:22:23.551Z,15.05
2022-10-28T12:24:54.323Z,15.04
2022-10-28T12:27:27.435Z,15.07
2022-10-28T12:30:01.642Z,15.04
2022-10-28T12:32:33.693Z,14.97
2022-10-28T12:35:06.963Z,15.10
2022-10-28T12:37:43.496Z,15.04
2022-10-28T12:40:21.092Z,14.93
2022-10-28T12:42:56.672Z,15.00
2022-10-28T12:45:26.623Z,15.04
2022-10-28T12:48:02.835Z,14.98
2022-10-28T12:50:38.892Z,15.06
2022-10-28T12:53:26.042Z,15.05
2022-10-28T12:56:00.567Z,15.10
2022-10-28T12:58:35.144Z,15.18
2022-10-28T13:01:26.920Z,15.12
2022-10-28T13:03:55.801Z,15.18
2022-10-28T13:06:44.080Z,15.13
2022-10-28T13:09:39.290Z,15.10
2022-10-28T13:12:30.651Z,15.11
2022-10-28T13:15:25.832Z,15.07
2022-10-28T13:18:08.076Z,15.04
2022-10-28T13:20:47.939Z,15.03
2022-10-28T13:23:28.170Z,15.04
2022-10-28T13:26:12.066Z,14.99
2022-10-28T13:28:47.102Z,15.00
2022-10-28T13:31:17.574Z,15.05
2022-10-28T13:33:53.625Z,15.07
2022-10-28T13:36:27.646Z,15.14
2022-10-28T13:39:00.010Z,15.14
2022-10-28T13:41:32.537Z,15.16
2022-10-28T13:44:25.826Z,15.04
2022-10-28T13:47:32.751Z,15.04
2022-10-28T13:50:26.647Z,15.00
2022-10-28T13:53:45.275Z,14.98
2022-10-28T13:56:29.120Z,14.96
2022-10-28T13:59:01.139Z,15.04
2022-10-28T14:02:02.051Z,15.04
2022-10-28T14:04:40.306Z,15.06
2022-10-28T14:07:24.559Z,15.05
2022-10-28T14:09:56.952Z,15.06
2022-10-28T14:12:29.227Z,15.06
2022-10-28T14:15:05.597Z,15.03
2022-10-28T14:17:41.671Z,15.10
2022-10-28T14:20:24.850Z,15.14
2022-10-28T14:22:54.568Z,15.12
2022-10-28T14:26:05.621Z,15.09
2022-10-28T14:28:56.208Z,15.06
2022-10-28T14:31:42.208Z,15.07
2022-10-28T14:34:35.681Z,15.10
2022-10-28T14:37:20.003Z,15.17
2022-10-28T14:40:10.696Z,15.16
2022-10-28T14:42:55.081Z,15.07
2022-10-28T14:45:34.524Z,15.15
2022-10-28T14:48:23.892Z,15.15
2022-10-28T14:50:54.668Z,15.17
2022-10-28T14:53:42.249Z,15.15
2022-10-28T14:56:13.992Z,15.12
2022-10-28T14:58:44.112Z,15.08
2022-10-28T15:01:36.671Z,15.07
2022-10-28T15:04:12.531Z,15.08
2022-10-28T15:06:43.936Z,15.06
2022-10-28T15:09:21.584Z,14.97
2022-10-28T15:11:56.057Z,15.01
2022-10-28T15:14:33.380Z,14.99
2022-10-28T15:17:11.888Z,15.03
2022-10-28T15:19:40.120Z,15.09
2022-10-28T15:22:15.317Z,15.06
2022-10-28T15:24:54.439Z,15.08
2022-10-28T15:27:24.167Z,15.15
2022-10-28T15:29:52.856Z,15.18
2022-10-28T15:32:35.596Z,15.11
2022-10-28T15:35:26.826Z,15.08
2022-10-28T15:37:56.195Z,15.07
2022-10-28T15:40:29.989Z,15.11
2022-10-28T15:43:00.717Z,15.13
2022-10-28T15:45:31.502Z,15.07
2022-10-28T15:48:02.051Z,15.06
2022-10-28T15:50:33.210Z,15.01
2022-10-28T15:53:32.608Z,15.00
2022-10-28T15:56:20.300Z,14.96
2022-10-28T15:59:02.008Z,14.88
2022-10-28T16:01:38.393Z,14.90
2022-10-28T16:04:08.071Z,14.90
2022-10-28T16:06:38.400Z,14.95
2022-10-28T16:09:17.214Z,14.92
2022-10-28T16:11:50.320Z,14.92
2022-10-28T16:14:38.300Z,14.92
2022-10-28T16:17:11.313Z,14.88
2022-10-28T16:19:44.559Z,14.79
2022-10-28T16:25:05.682Z,14.85
2022-10-28T16:31:31.284Z,14.49
2022-10-28T16:34:15.706Z,14.76
2022-10-28T16:36:44.165Z,14.81
2022-10-28T16:39:13.523Z,14.79
2022-10-28T16:41:42.233Z,14.77
2022-10-28T16:44:18.215Z,14.72
2022-10-28T16:46:48.396Z,14.67
2022-10-28T16:49:18.914Z,14.71
2022-10-28T16:51:47.249Z,14.67
2022-10-28T16:54:15.594Z,14.66
2022-10-28T16:56:43.849Z,14.66
2022-10-28T16:59:12.143Z,14.65
2022-10-28T17:01:40.840Z,14.63
2022-10-28T17:04:11.820Z,14.61
2022-10-28T17:06:40.234Z,14.56
2022-10-28T17:09:08.825Z,14.49
2022-10-28T17:11:37.220Z,14.62
2022-10-28T17:14:05.521Z,14.61
2022-10-28T17:16:33.982Z,14.59
2022-10-28T17:19:03.998Z,14.58
2022-10-28T17:21:34.284Z,14.55
2022-10-28T17:24:02.680Z,14.55
2022-10-28T17:26:31.436Z,14.52
2022-10-28T17:28:59.809Z,14.51
2022-10-28T17:31:28.074Z,14.53
2022-10-28T17:33:57.175Z,14.53
2022-10-28T17:36:25.538Z,14.50
2022-10-28T17:38:55.947Z,14.42
2022-10-28T17:41:24.511Z,14.52
2022-10-28T17:43:54.545Z,14.50
2022-10-28T17:46:23.978Z,14.55
2022-10-28T17:48:55.962Z,14.53
2022-10-28T17:51:25.276Z,14.51
2022-10-28T17:53:56.945Z,14.46
2022-10-28T17:56:25.424Z,14.46
2022-10-28T17:58:54.338Z,14.45
2022-10-28T18:01:22.975Z,14.40
2022-10-28T18:03:52.348Z,14.36
2022-10-28T18:06:20.588Z,14.36
2022-10-28T18:11:21.206Z,14.26
2022-10-28T18:13:53.188Z,14.25
2022-10-28T18:16:24.500Z,14.29
2022-10-28T18:18:54.350Z,14.33
2022-10-28T18:21:22.949Z,14.35
2022-10-28T18:23:53.478Z,14.37
2022-10-28T18:26:23.524Z,14.35
2022-10-28T18:28:51.779Z,14.35
2022-10-28T18:31:21.720Z,14.27
2022-10-28T18:33:54.154Z,14.29
2022-10-28T18:36:24.933Z,14.32
2022-10-28T18:38:53.328Z,14.38
2022-10-28T18:41:24.410Z,14.36
2022-10-28T18:43:55.227Z,14.38
2022-10-28T18:46:23.517Z,14.41
2022-10-28T18:48:51.989Z,14.41
2022-10-28T18:51:20.777Z,14.43
2022-10-28T18:53:50.665Z,14.42
2022-10-28T18:56:21.603Z,14.54
2022-10-28T18:58:52.677Z,14.56
2022-10-28T19:01:22.779Z,14.52
2022-10-28T19:03:54.668Z,14.55
2022-10-28T19:06:24.020Z,14.62
2022-10-28T19:08:53.895Z,14.67
2022-10-28T19:11:23.568Z,14.73
2022-10-28T19:13:53.511Z,14.75
2022-10-28T19:16:21.813Z,14.80
2022-10-28T19:18:50.124Z,14.80
2022-10-28T19:21:18.713Z,14.80
2022-10-28T19:23:46.942Z,14.85
2022-10-28T19:26:15.328Z,14.85
2022-10-28T19:28:45.417Z,14.84
2022-10-28T19:31:16.573Z,14.87
2022-10-28T19:33:45.426Z,14.89
2022-10-28T19:36:17.797Z,14.92
2022-10-28T19:38:47.227Z,14.96
2022-10-28T19:41:17.534Z,14.93
2022-10-28T19:43:46.671Z,15.03
2022-10-28T19:46:17.610Z,14.96
2022-10-28T19:48:48.911Z,14.95
2022-10-28T19:51:18.964Z,15.06
2022-10-28T19:53:49.853Z,15.08
2022-10-28T19:56:19.718Z,15.08
2022-10-28T19:58:49.672Z,15.04
2022-10-28T20:01:19.940Z,15.11
2022-10-28T20:03:49.349Z,15.13
2022-10-28T20:06:19.801Z,15.11
2022-10-28T20:08:49.758Z,15.14
2022-10-28T20:11:24.780Z,15.14
2022-10-28T20:13:55.779Z,15.13
2022-10-28T20:16:26.699Z,15.12
2022-10-28T20:18:55.369Z,15.09
2022-10-28T20:21:25.604Z,15.13
2022-10-28T20:23:55.810Z,14.98
2022-10-28T20:26:26.147Z,15.12
2022-10-28T20:28:54.986Z,15.14
2022-10-28T20:31:26.425Z,15.16
2022-10-28T20:33:56.960Z,15.15
2022-10-28T20:36:27.187Z,15.18
2022-10-28T20:38:56.404Z,15.21
2022-10-28T20:41:25.198Z,15.24
2022-10-28T20:43:54.306Z,15.26
2022-10-28T20:46:23.711Z,15.28
2022-10-28T20:48:55.229Z,15.27
2022-10-28T20:51:24.404Z,15.30
2022-10-28T20:53:53.345Z,15.31
2022-10-28T20:56:24.024Z,15.29
2022-10-28T20:58:53.401Z,15.28
2022-10-28T21:01:23.786Z,15.20
2022-10-28T21:03:55.438Z,15.17
2022-10-28T21:06:24.266Z,15.15
2022-10-28T21:08:53.566Z,15.21
2022-10-28T21:11:23.747Z,15.28
2022-10-28T21:13:53.513Z,15.24
2022-10-28T21:16:23.208Z,15.26
2022-10-28T21:18:53.697Z,15.29
2022-10-28T21:21:23.629Z,15.24
2022-10-28T21:23:51.869Z,15.21
2022-10-28T21:26:20.609Z,15.19
2022-10-28T21:28:51.995Z,15.18
2022-10-28T21:31:22.109Z,15.17
2022-10-28T21:36:25.626Z,15.13
2022-10-28T21:38:56.724Z,15.10
2022-10-28T21:41:26.234Z,15.18
2022-10-28T21:43:55.120Z,15.20
2022-10-28T21:46:24.438Z,15.16
2022-10-28T21:48:53.785Z,15.13
2022-10-28T21:51:22.311Z,15.09
2022-10-28T21:53:51.757Z,15.04
2022-10-28T21:56:21.703Z,15.05
2022-10-28T21:58:52.139Z,15.05
2022-10-28T22:01:22.383Z,14.98
2022-10-28T22:03:52.657Z,14.99
2022-10-28T22:06:21.093Z,14.94
2022-10-28T22:08:49.486Z,15.02
2022-10-28T22:11:20.939Z,14.99
2022-10-28T22:13:56.208Z,14.95
2022-10-28T22:16:24.636Z,14.98
2022-10-28T22:18:52.934Z,14.95
2022-10-28T22:21:23.454Z,14.94
2022-10-28T22:23:52.513Z,14.95
2022-10-28T22:26:24.525Z,14.95
2022-10-28T22:28:53.424Z,14.96
2022-10-28T22:31:23.984Z,14.99
2022-10-28T22:33:54.342Z,15.04
2022-10-28T22:36:25.184Z,15.00
2022-10-28T22:38:54.010Z,15.02
2022-10-28T22:41:24.706Z,15.04
2022-10-28T22:43:54.615Z,15.11
2022-10-28T22:46:23.938Z,15.08
2022-10-28T22:48:52.687Z,15.09
2022-10-28T22:51:22.461Z,15.13
2022-10-28T22:53:50.765Z,15.16
2022-10-28T22:56:21.396Z,15.16
2022-10-28T22:58:55.428Z,15.20
2022-10-28T23:01:25.313Z,15.28
2022-10-28T23:03:54.463Z,15.30
2022-10-28T23:06:24.716Z,15.31
2022-10-28T23:08:53.319Z,15.36
2022-10-28T23:11:22.879Z,15.37
2022-10-28T23:13:54.343Z,15.36
2022-10-28T23:16:23.816Z,15.41
2022-10-28T23:18:53.297Z,15.40
2022-10-28T23:21:23.610Z,15.48
2022-10-28T23:23:54.560Z,15.42
2022-10-28T23:26:23.690Z,15.43
2022-10-28T23:28:54.563Z,15.41
2022-10-28T23:31:24.171Z,15.43
2022-10-28T23:33:54.150Z,15.45
2022-10-28T23:36:22.523Z,15.44
2022-10-28T23:38:51.019Z,15.48
2022-10-28T23:41:21.103Z,15.48
2022-10-28T23:43:50.786Z,15.50
2022-10-28T23:46:21.258Z,15.49
2022-10-28T23:48:49.891Z,15.50
2022-10-28T23:51:19.500Z,15.50
2022-10-28T23:53:47.846Z,15.50
2022-10-28T23:56:16.310Z,15.48
2022-10-28T23:58:44.582Z,15.38
